ADDS METAR Data INFO
IDs: Format: Raw Decoded Include TAF

Data at: 1607 UTC 25 Apr 2018

KMDD 251555Z AUTO 03011G17KT 5SM -DZ 08/06 A3032 RMK AO2 LTG DSNT E AND S T00820055
KMDD 251535Z AUTO 03012G24KT 5SM HZ 08/05 A3032 RMK AO2 LTG DSNT S T00820047
KMDD 251515Z AUTO 02014G21KT 7SM 09/04 A3032 RMK AO2 T00870042
KMDD 251455Z AUTO 02017G21KT 10SM 09/04 A3031 RMK AO2 LTG DSNT S T00910041
KMDD 251435Z AUTO 02016G23KT 10SM 09/04 A3030 RMK AO2 LTG DSNT SE AND SW T00940039
KMDD 251415Z AUTO 01017G23KT 10SM 10/04 A3029 RMK AO2 T00970037
KMDD 251355Z AUTO 01018G24KT 10SM 10/04 A3028 RMK AO2 LTG DSNT SE T01030035
KMDD 251335Z AUTO 01017G25KT 7SM 11/04 A3028 RMK AO2 T01060035
KMDD 251315Z AUTO 01015G23KT 10SM 11/04 A3026 RMK AO2 T01100035
KMDD 251255Z AUTO 02013G21KT 10SM 11/04 A3026 RMK AO2 T01120037
KMDD 251235Z AUTO 03017G22KT 10SM 12/04 A3024 RMK AO2 T01150042
KMDD 251215Z AUTO 02013G21KT 10SM 12/04 A3024 RMK AO2 T01160044
KMDD 251155Z AUTO 01012G21KT 10SM 12/05 A3021 RMK AO2 T01180047 10206 20118
KMDD 251135Z AUTO 02015G20KT 10SM 12/05 A3020 RMK AO2 T01190050
KMDD 251115Z AUTO 03019G25KT 10SM 12/05 A3019 RMK AO2 T01200051
KMDD 251055Z AUTO 03017G23KT 10SM 12/05 A3018 RMK AO2 T01210051
KMDD 251035Z AUTO 03013G21KT 10SM 13/05 A3018 RMK AO2 T01250052
KMDD 251015Z AUTO 02016G23KT 10SM 13/06 A3017 RMK AO2 T01310060
KMDD 250955Z AUTO 03017G23KT 10SM 13/06 A3016 RMK AO2 T01310062
KMDD 250935Z AUTO 03014G23KT 10SM 13/06 A3015 RMK AO2 T01310063
KMDD 250915Z AUTO 03016G20KT 10SM 14/07 A3014 RMK AO2 T01350065
KMDD 250855Z AUTO 03015G22KT 10SM 14/07 A3013 RMK AO2 T01370067
KMDD 250835Z AUTO 04017G22KT 10SM 14/07 A3014 RMK AO2 T01400070
KMDD 250815Z AUTO 04017G26KT 10SM 14/07 A3013 RMK AO2 T01440070
KMDD 250755Z AUTO 04015G22KT 10SM 15/08 A3012 RMK AO2 T01500075
KMDD 250735Z AUTO 04018G25KT 7SM 16/08 A3012 RMK AO2 LTG DSNT E T01570079
KMDD 250715Z AUTO 04017G26KT 7SM 17/09 A3012 RMK AO2 T01670085
KMDD 250655Z AUTO 04019G24KT 10SM 19/09 A3011 RMK AO2 T01900093
KMDD 250635Z AUTO 05013KT 10SM 21/12 A3010 RMK AO2 LTG DSNT E T02050117
KMDD 250615Z AUTO 05013KT 10SM 20/12 A3009 RMK AO2 T02010117
KMDD 250555Z AUTO 05013KT 10SM 20/12 A3010 RMK AO2 LTG DSNT NE AND E T02010116 10347 20200 403570134
KMDD 250535Z AUTO 05016G21KT 10SM 20/12 A3010 RMK AO2 LTG DSNT E T02000117
KMDD 250515Z AUTO 05017G22KT 7SM 21/12 A3008 RMK AO2 T02050115
KMDD 250455Z AUTO 05016KT 10SM 21/11 A3006 RMK AO2 T02100110
KMDD 250435Z AUTO 05014G19KT 10SM 21/11 A3004 RMK AO2 T02130106
KMDD 250415Z AUTO 06010KT 10SM 22/10 A3002 RMK AO2 T02180101
KMDD 250355Z AUTO 06010G15KT 10SM 22/10 A3001 RMK AO2 T02230096
KMDD 250335Z AUTO 07010KT 10SM 23/09 A3000 RMK AO2 T02310093
KMDD 250315Z AUTO 07010G16KT 10SM 25/08 A2999 RMK AO2 T02450081
KMDD 250255Z AUTO 07013G18KT 7SM 26/07 A2997 RMK AO2 T02590068
KMDD 250235Z AUTO 12006KT 10SM 28/04 A2996 RMK AO2 T02830041
KMDD 250215Z AUTO 18010KT 10SM 29/05 A2994 RMK AO2 T02880047
KMDD 250155Z AUTO 18008KT 10SM 29/05 A2994 RMK AO2 T02930045
KMDD 250135Z AUTO 17009KT 10SM 30/04 A2993 RMK AO2 T03020040
KMDD 250115Z AUTO 17010G16KT 10SM 31/05 A2993 RMK AO2 T03100045
KMDD 250055Z AUTO 17013G19KT 10SM 32/04 A2992 RMK AO2 T03210039
KMDD 250035Z AUTO 19015G18KT 10SM 33/02 A2992 RMK AO2 T03310021
KMDD 250015Z AUTO 17015KT 10SM 34/01 A2991 RMK AO2 T03410011
KMDD 242355Z AUTO 21008KT 10SM 35/01 A2991 RMK AO2 T03480013 10357 20321
KMDD 242335Z AUTO 17009G14KT 150V210 10SM 35/M01 A2991 RMK AO2 T03521010
KMDD 242315Z AUTO 17008KT 10SM 35/00 A2991 RMK AO2 T03460000
KMDD 242255Z AUTO 23005G14KT 10SM 35/00 A2991 RMK AO2 T03501002
KMDD 242235Z AUTO 20003KT 10SM 36/00 A2992 RMK AO2 T03550000
KMDD 242215Z AUTO 21009KT 10SM 35/00 A2992 RMK AO2 T03541001
KMDD 242155Z AUTO 22007G14KT 10SM 34/00 A2993 RMK AO2 T03431003
KMDD 242135Z AUTO 17013G16KT 10SM 35/00 A2993 RMK AO2 T03451002
KMDD 242115Z AUTO 18007G15KT 10SM 34/01 A2994 RMK AO2 T03430009
KMDD 242055Z AUTO 14008G18KT 10SM 35/03 A2995 RMK AO2 T03490026
KMDD 242035Z AUTO 19009KT 10SM 36/04 A2996 RMK AO2 T03550036
KMDD 242015Z AUTO 15010G16KT 10SM 35/04 A2997 RMK AO2 T03510037
KMDD 241955Z AUTO 18007G15KT 10SM 35/04 A2999 RMK AO2 T03480038
KMDD 241935Z AUTO 20011G18KT 10SM 35/06 A3000 RMK AO2 T03460064
KMDD 241915Z AUTO 20006G17KT 10SM 34/06 A3000 RMK AO2 T03410063
KMDD 241855Z AUTO 18014G19KT 10SM 34/07 A3001 RMK AO2 T03350070
KMDD 241835Z AUTO 18012G19KT 150V210 10SM 33/08 A3002 RMK AO2 T03310075
KMDD 241815Z AUTO 16011G15KT 10SM 33/07 A3002 RMK AO2 T03260072
KMDD 241755Z AUTO 17011G18KT 10SM 32/07 A3003 RMK AO2 T03230074 10323 20134
KMDD 241735Z AUTO 18010G18KT 10SM 32/07 A3004 RMK AO2 T03150074
KMDD 241715Z AUTO 19010G15KT 10SM 31/08 A3004 RMK AO2 T03050078
KMDD 241655Z AUTO 18011KT 10SM 29/09 A3005 RMK AO2 T02930090
KMDD 241635Z AUTO 17011KT 10SM 28/10 A3005 RMK AO2 T02810095
KMDD 241615Z AUTO 15009G14KT 10SM 27/10 A3006 RMK AO2 T02690095
KMDD 241555Z AUTO 15009KT 10SM 26/09 A3006 RMK AO2 T02600093
KMDD 241535Z AUTO 15011KT 10SM 25/10 A3006 RMK AO2 T02490101
KMDD 241515Z AUTO 15009KT 7SM 24/10 A3006 RMK AO2 T02360104
KMDD 241455Z AUTO 17009KT 10SM 22/10 A3007 RMK AO2 T02210100
KMDD 241435Z AUTO 14008KT 10SM 21/10 A3007 RMK AO2 T02120095
KMDD 241415Z AUTO 14004KT 7SM 20/08 A3007 RMK AO2 T01950083
KMDD 241355Z AUTO 12006KT 7SM 19/08 A3007 RMK AO2 T01860079
KMDD 241335Z AUTO 13007KT 7SM 17/08 A3007 RMK AO2 T01730075
KMDD 241315Z AUTO 12004KT 5SM HZ 16/06 A3007 RMK AO2 T01590064
KMDD 241255Z AUTO 12005KT 5SM HZ 15/06 A3006 RMK AO2 T01520060
KMDD 241235Z AUTO 09003KT 7SM 14/06 A3006 RMK AO2 T01430055
KMDD 241215Z AUTO 08005KT 10SM 14/05 A3006 RMK AO2 T01380050
KMDD 241155Z AUTO 08003KT 10SM 13/04 A3004 RMK AO2 T01340040 10208 20134
KMDD 241135Z AUTO 00000KT 10SM 14/04 A3004 RMK AO2 T01360038
KMDD 241115Z AUTO 04003KT 5SM HZ 14/03 A3003 RMK AO2 T01380034
KMDD 241055Z AUTO 06003KT 10SM 15/04 A3003 RMK AO2 T01470036
KMDD 241035Z AUTO 00000KT 10SM 16/04 A3002 RMK AO2 T01570040
KMDD 241015Z AUTO 11003KT 10SM 16/04 A3002 RMK AO2 T01600042
KMDD 240955Z AUTO 11004KT 10SM 16/04 A3002 RMK AO2 T01630039
KMDD 240935Z AUTO 12003KT 10SM 17/04 A3002 RMK AO2 T01670038
KMDD 240915Z AUTO 12004KT 10SM 17/04 A3002 RMK AO2 T01700042
KMDD 240855Z AUTO 00000KT 10SM 17/04 A3002 RMK AO2 T01680037
KMDD 240835Z AUTO 16004KT 10SM 18/04 A3002 RMK AO2 T01750037
KMDD 240815Z AUTO 15004KT 10SM 18/04 A3002 RMK AO2 T01810040
KMDD 240755Z AUTO 16005KT 10SM 19/04 A3003 RMK AO2 T01900038
KMDD 240735Z AUTO 14008KT 10SM 19/04 A3003 RMK AO2 T01930036
KMDD 240715Z AUTO 14007KT 10SM 20/03 A3003 RMK AO2 LTG DSNT N T01960032
KMDD 240655Z AUTO 14009KT 10SM 20/03 A3003 RMK AO2 T02000032
KMDD 240635Z AUTO 14010KT 10SM 20/03 A3004 RMK AO2 T02030031
KMDD 240615Z AUTO 14012G17KT 10SM 21/03 A3004 RMK AO2 T02050030
KMDD 240555Z AUTO 13011KT 10SM 21/03 A3004 RMK AO2 T02090030 10297 20209 403060095
KMDD 240535Z AUTO 14011KT 10SM 21/03 A3004 RMK AO2 T02120027
KMDD 240515Z AUTO 14011KT 10SM 22/03 A3004 RMK AO2 T02170028
KMDD 240455Z AUTO 14012G16KT 10SM 22/03 A3004 RMK AO2 T02200028
KMDD 240435Z AUTO 14010KT 10SM 22/03 A3004 RMK AO2 T02200029
KMDD 240415Z AUTO 12009KT 10SM 23/03 A3004 RMK AO2 T02250028